sensor_id;sensor_type;location;lat;lon;timestamp;P1;durP1;ratioP1;P2;durP2;ratioP2
30307;SDS011;17114;52.314;8.910;2023-02-01T00:02:06;34.78;;;4.97;;
30307;SDS011;17114;52.314;8.910;2023-02-01T00:04:33;34.35;;;4.72;;
30307;SDS011;17114;52.314;8.910;2023-02-01T00:07:00;31.23;;;5.13;;
30307;SDS011;17114;52.314;8.910;2023-02-01T00:09:27;36.33;;;5.20;;
30307;SDS011;17114;52.314;8.910;2023-02-01T00:11:54;24.77;;;4.72;;
30307;SDS011;17114;52.314;8.910;2023-02-01T00:14:21;35.83;;;4.47;;
30307;SDS011;17114;52.314;8.910;2023-02-01T00:16:48;26.63;;;5.50;;
30307;SDS011;17114;52.314;8.910;2023-02-01T00:19:15;33.30;;;4.43;;
30307;SDS011;17114;52.314;8.910;2023-02-01T00:21:42;27.90;;;4.93;;
30307;SDS011;17114;52.314;8.910;2023-02-01T00:24:10;34.05;;;4.50;;
30307;SDS011;17114;52.314;8.910;2023-02-01T00:26:38;31.83;;;5.60;;
30307;SDS011;17114;52.314;8.910;2023-02-01T00:29:11;28.95;;;4.93;;
30307;SDS011;17114;52.314;8.910;2023-02-01T00:31:41;33.92;;;4.78;;
30307;SDS011;17114;52.314;8.910;2023-02-01T00:34:10;22.63;;;3.85;;
30307;SDS011;17114;52.314;8.910;2023-02-01T00:36:39;29.15;;;5.25;;
30307;SDS011;17114;52.314;8.910;2023-02-01T00:39:07;20.60;;;4.00;;
30307;SDS011;17114;52.314;8.910;2023-02-01T00:41:35;31.48;;;5.75;;
30307;SDS011;17114;52.314;8.910;2023-02-01T00:44:02;24.38;;;4.65;;
30307;SDS011;17114;52.314;8.910;2023-02-01T00:46:29;19.85;;;4.18;;
30307;SDS011;17114;52.314;8.910;2023-02-01T00:48:56;28.60;;;4.68;;
30307;SDS011;17114;52.314;8.910;2023-02-01T00:51:25;28.42;;;4.90;;
30307;SDS011;17114;52.314;8.910;2023-02-01T00:53:53;27.00;;;4.13;;
30307;SDS011;17114;52.314;8.910;2023-02-01T00:56:20;21.13;;;4.07;;
30307;SDS011;17114;52.314;8.910;2023-02-01T00:58:48;30.60;;;4.63;;
30307;SDS011;17114;52.314;8.910;2023-02-01T01:03:44;32.35;;;4.57;;
30307;SDS011;17114;52.314;8.910;2023-02-01T01:06:17;27.02;;;4.95;;
30307;SDS011;17114;52.314;8.910;2023-02-01T01:08:53;28.25;;;4.75;;
30307;SDS011;17114;52.314;8.910;2023-02-01T01:11:22;38.35;;;4.90;;
30307;SDS011;17114;52.314;8.910;2023-02-01T01:13:52;27.90;;;4.13;;
30307;SDS011;17114;52.314;8.910;2023-02-01T01:16:20;33.40;;;5.65;;
30307;SDS011;17114;52.314;8.910;2023-02-01T01:18:49;28.25;;;3.42;;
30307;SDS011;17114;52.314;8.910;2023-02-01T01:21:16;24.25;;;3.90;;
30307;SDS011;17114;52.314;8.910;2023-02-01T01:23:44;21.58;;;3.92;;
30307;SDS011;17114;52.314;8.910;2023-02-01T01:26:20;16.65;;;3.40;;
30307;SDS011;17114;52.314;8.910;2023-02-01T01:28:49;30.95;;;4.75;;
30307;SDS011;17114;52.314;8.910;2023-02-01T01:31:17;23.30;;;4.40;;
30307;SDS011;17114;52.314;8.910;2023-02-01T01:33:47;40.28;;;5.18;;
30307;SDS011;17114;52.314;8.910;2023-02-01T01:36:16;35.83;;;5.07;;
30307;SDS011;17114;52.314;8.910;2023-02-01T01:38:42;25.15;;;4.30;;
30307;SDS011;17114;52.314;8.910;2023-02-01T01:41:12;26.33;;;3.65;;
30307;SDS011;17114;52.314;8.910;2023-02-01T01:43:48;28.40;;;5.63;;
30307;SDS011;17114;52.314;8.910;2023-02-01T01:46:21;28.45;;;4.47;;
30307;SDS011;17114;52.314;8.910;2023-02-01T01:48:56;35.03;;;5.38;;
30307;SDS011;17114;52.314;8.910;2023-02-01T01:51:25;24.77;;;4.07;;
30307;SDS011;17114;52.314;8.910;2023-02-01T01:54:08;34.28;;;4.28;;
30307;SDS011;17114;52.314;8.910;2023-02-01T01:56:39;26.85;;;4.65;;
30307;SDS011;17114;52.314;8.910;2023-02-01T01:59:07;30.60;;;4.93;;
30307;SDS011;17114;52.314;8.910;2023-02-01T02:01:35;27.27;;;4.72;;
30307;SDS011;17114;52.314;8.910;2023-02-01T02:04:02;29.23;;;4.53;;
30307;SDS011;17114;52.314;8.910;2023-02-01T02:06:34;29.63;;;5.18;;
30307;SDS011;17114;52.314;8.910;2023-02-01T02:09:11;29.55;;;4.47;;
30307;SDS011;17114;52.314;8.910;2023-02-01T02:11:38;29.67;;;5.47;;
30307;SDS011;17114;52.314;8.910;2023-02-01T02:14:06;27.10;;;4.88;;
30307;SDS011;17114;52.314;8.910;2023-02-01T02:16:38;29.63;;;5.35;;
30307;SDS011;17114;52.314;8.910;2023-02-01T02:27:31;24.73;;;4.22;;
30307;SDS011;17114;52.314;8.910;2023-02-01T02:38:58;32.47;;;4.97;;
30307;SDS011;17114;52.314;8.910;2023-02-01T02:41:33;25.70;;;4.97;;
30307;SDS011;17114;52.314;8.910;2023-02-01T02:48:19;22.52;;;3.90;;
30307;SDS011;17114;52.314;8.910;2023-02-01T02:56:42;23.25;;;4.50;;
30307;SDS011;17114;52.314;8.910;2023-02-01T02:59:28;29.70;;;3.97;;
30307;SDS011;17114;52.314;8.910;2023-02-01T03:02:15;22.83;;;4.20;;
30307;SDS011;17114;52.314;8.910;2023-02-01T03:05:01;26.17;;;4.28;;
30307;SDS011;17114;52.314;8.910;2023-02-01T03:10:34;34.88;;;5.78;;
30307;SDS011;17114;52.314;8.910;2023-02-01T03:13:11;28.35;;;4.38;;
30307;SDS011;17114;52.314;8.910;2023-02-01T03:15:59;21.00;;;4.35;;
30307;SDS011;17114;52.314;8.910;2023-02-01T03:18:48;27.63;;;4.50;;
30307;SDS011;17114;52.314;8.910;2023-02-01T03:21:26;27.80;;;4.68;;
30307;SDS011;17114;52.314;8.910;2023-02-01T03:23:57;27.40;;;4.07;;
30307;SDS011;17114;52.314;8.910;2023-02-01T03:26:31;25.73;;;4.22;;
30307;SDS011;17114;52.314;8.910;2023-02-01T03:29:17;31.95;;;4.85;;
30307;SDS011;17114;52.314;8.910;2023-02-01T03:31:48;33.50;;;5.43;;
30307;SDS011;17114;52.314;8.910;2023-02-01T03:34:15;22.58;;;4.53;;
30307;SDS011;17114;52.314;8.910;2023-02-01T03:36:50;25.90;;;5.22;;
30307;SDS011;17114;52.314;8.910;2023-02-01T03:39:31;30.95;;;4.88;;
30307;SDS011;17114;52.314;8.910;2023-02-01T03:42:07;27.02;;;5.20;;
30307;SDS011;17114;52.314;8.910;2023-02-01T03:44:40;28.88;;;5.20;;
30307;SDS011;17114;52.314;8.910;2023-02-01T03:47:23;27.40;;;4.15;;
30307;SDS011;17114;52.314;8.910;2023-02-01T03:49:53;23.50;;;5.07;;
30307;SDS011;17114;52.314;8.910;2023-02-01T03:55:17;26.60;;;4.63;;
30307;SDS011;17114;52.314;8.910;2023-02-01T03:58:04;31.00;;;5.55;;
30307;SDS011;17114;52.314;8.910;2023-02-01T04:00:35;29.85;;;4.53;;
30307;SDS011;17114;52.314;8.910;2023-02-01T04:03:04;34.83;;;6.28;;
30307;SDS011;17114;52.314;8.910;2023-02-01T04:05:32;29.50;;;5.30;;
30307;SDS011;17114;52.314;8.910;2023-02-01T04:07:59;32.95;;;5.32;;
30307;SDS011;17114;52.314;8.910;2023-02-01T04:10:26;32.35;;;5.68;;
30307;SDS011;17114;52.314;8.910;2023-02-01T04:12:54;30.25;;;5.28;;
30307;SDS011;17114;52.314;8.910;2023-02-01T04:15:21;26.95;;;4.25;;
30307;SDS011;17114;52.314;8.910;2023-02-01T04:17:47;25.63;;;3.83;;
30307;SDS011;17114;52.314;8.910;2023-02-01T04:20:15;19.40;;;4.75;;
30307;SDS011;17114;52.314;8.910;2023-02-01T04:22:42;23.25;;;5.13;;
30307;SDS011;17114;52.314;8.910;2023-02-01T04:25:09;30.15;;;5.38;;
30307;SDS011;17114;52.314;8.910;2023-02-01T04:27:36;21.95;;;4.97;;
30307;SDS011;17114;52.314;8.910;2023-02-01T04:30:03;16.13;;;4.38;;
30307;SDS011;17114;52.314;8.910;2023-02-01T04:32:31;22.15;;;3.85;;
30307;SDS011;17114;52.314;8.910;2023-02-01T04:34:58;25.35;;;4.53;;
30307;SDS011;17114;52.314;8.910;2023-02-01T04:37:24;27.17;;;4.70;;
30307;SDS011;17114;52.314;8.910;2023-02-01T04:39:51;25.88;;;4.20;;
30307;SDS011;17114;52.314;8.910;2023-02-01T04:42:18;27.20;;;4.22;;
30307;SDS011;17114;52.314;8.910;2023-02-01T04:44:45;28.10;;;4.18;;
30307;SDS011;17114;52.314;8.910;2023-02-01T04:47:12;26.27;;;5.68;;
30307;SDS011;17114;52.314;8.910;2023-02-01T04:49:39;24.55;;;4.70;;
30307;SDS011;17114;52.314;8.910;2023-02-01T04:52:06;29.40;;;5.13;;
30307;SDS011;17114;52.314;8.910;2023-02-01T04:54:33;21.48;;;4.90;;
30307;SDS011;17114;52.314;8.910;2023-02-01T04:57:00;24.20;;;4.25;;
30307;SDS011;17114;52.314;8.910;2023-02-01T04:59:27;19.65;;;4.22;;
30307;SDS011;17114;52.314;8.910;2023-02-01T05:01:55;24.73;;;5.07;;
30307;SDS011;17114;52.314;8.910;2023-02-01T05:04:21;27.95;;;4.57;;
30307;SDS011;17114;52.314;8.910;2023-02-01T05:06:48;27.95;;;4.00;;
30307;SDS011;17114;52.314;8.910;2023-02-01T05:09:15;21.08;;;4.80;;
30307;SDS011;17114;52.314;8.910;2023-02-01T05:11:42;19.50;;;4.10;;
30307;SDS011;17114;52.314;8.910;2023-02-01T05:14:27;24.00;;;4.10;;
30307;SDS011;17114;52.314;8.910;2023-02-01T05:16:54;21.15;;;4.95;;
30307;SDS011;17114;52.314;8.910;2023-02-01T05:19:21;20.88;;;4.82;;
30307;SDS011;17114;52.314;8.910;2023-02-01T05:21:48;29.58;;;5.30;;
30307;SDS011;17114;52.314;8.910;2023-02-01T05:24:14;31.48;;;5.07;;
30307;SDS011;17114;52.314;8.910;2023-02-01T05:26:47;28.25;;;6.28;;
30307;SDS011;17114;52.314;8.910;2023-02-01T05:29:15;31.30;;;5.53;;
30307;SDS011;17114;52.314;8.910;2023-02-01T05:31:46;22.38;;;4.00;;
30307;SDS011;17114;52.314;8.910;2023-02-01T05:34:14;21.90;;;4.30;;
30307;SDS011;17114;52.314;8.910;2023-02-01T05:36:41;20.13;;;4.50;;
30307;SDS011;17114;52.314;8.910;2023-02-01T05:39:08;26.48;;;5.38;;
30307;SDS011;17114;52.314;8.910;2023-02-01T05:41:36;23.88;;;5.25;;
30307;SDS011;17114;52.314;8.910;2023-02-01T05:44:03;20.83;;;3.90;;
30307;SDS011;17114;52.314;8.910;2023-02-01T05:46:35;27.55;;;4.97;;
30307;SDS011;17114;52.314;8.910;2023-02-01T05:49:02;22.02;;;4.38;;
30307;SDS011;17114;52.314;8.910;2023-02-01T05:51:30;21.92;;;3.78;;
30307;SDS011;17114;52.314;8.910;2023-02-01T05:53:57;18.63;;;3.95;;
30307;SDS011;17114;52.314;8.910;2023-02-01T05:56:24;19.38;;;3.58;;
30307;SDS011;17114;52.314;8.910;2023-02-01T05:58:51;24.05;;;3.90;;
30307;SDS011;17114;52.314;8.910;2023-02-01T06:01:18;26.48;;;4.25;;
30307;SDS011;17114;52.314;8.910;2023-02-01T06:03:45;20.20;;;4.03;;
30307;SDS011;17114;52.314;8.910;2023-02-01T06:06:12;14.98;;;4.85;;
30307;SDS011;17114;52.314;8.910;2023-02-01T06:08:39;22.65;;;4.50;;
30307;SDS011;17114;52.314;8.910;2023-02-01T06:11:06;19.45;;;3.28;;
30307;SDS011;17114;52.314;8.910;2023-02-01T06:13:33;17.17;;;3.80;;
30307;SDS011;17114;52.314;8.910;2023-02-01T06:16:02;30.98;;;4.65;;
30307;SDS011;17114;52.314;8.910;2023-02-01T06:18:29;23.23;;;4.25;;
30307;SDS011;17114;52.314;8.910;2023-02-01T06:20:57;25.20;;;4.70;;
30307;SDS011;17114;52.314;8.910;2023-02-01T06:23:27;24.55;;;4.90;;
30307;SDS011;17114;52.314;8.910;2023-02-01T06:25:58;20.52;;;4.20;;
30307;SDS011;17114;52.314;8.910;2023-02-01T06:30:57;26.33;;;5.10;;
30307;SDS011;17114;52.314;8.910;2023-02-01T06:33:28;28.75;;;4.97;;
30307;SDS011;17114;52.314;8.910;2023-02-01T06:35:59;23.90;;;4.82;;
30307;SDS011;17114;52.314;8.910;2023-02-01T06:38:27;25.05;;;4.18;;
30307;SDS011;17114;52.314;8.910;2023-02-01T06:40:54;23.73;;;5.05;;
30307;SDS011;17114;52.314;8.910;2023-02-01T06:43:23;25.80;;;5.10;;
30307;SDS011;17114;52.314;8.910;2023-02-01T06:45:51;22.13;;;4.63;;
30307;SDS011;17114;52.314;8.910;2023-02-01T06:48:18;28.83;;;4.88;;
30307;SDS011;17114;52.314;8.910;2023-02-01T06:50:45;26.15;;;4.68;;
30307;SDS011;17114;52.314;8.910;2023-02-01T06:53:12;24.27;;;5.22;;
30307;SDS011;17114;52.314;8.910;2023-02-01T06:55:39;22.92;;;3.97;;
30307;SDS011;17114;52.314;8.910;2023-02-01T06:58:06;23.83;;;4.22;;
30307;SDS011;17114;52.314;8.910;2023-02-01T07:00:32;24.80;;;4.82;;
30307;SDS011;17114;52.314;8.910;2023-02-01T07:03:00;24.45;;;5.10;;
30307;SDS011;17114;52.314;8.910;2023-02-01T07:05:27;21.77;;;3.88;;
30307;SDS011;17114;52.314;8.910;2023-02-01T07:07:54;25.55;;;4.85;;
30307;SDS011;17114;52.314;8.910;2023-02-01T07:10:20;23.08;;;4.85;;
30307;SDS011;17114;52.314;8.910;2023-02-01T07:12:48;22.27;;;4.43;;
30307;SDS011;17114;52.314;8.910;2023-02-01T07:15:15;26.35;;;3.97;;
30307;SDS011;17114;52.314;8.910;2023-02-01T07:17:42;26.15;;;4.65;;
30307;SDS011;17114;52.314;8.910;2023-02-01T07:20:10;33.88;;;6.35;;
30307;SDS011;17114;52.314;8.910;2023-02-01T07:22:37;22.25;;;4.88;;
30307;SDS011;17114;52.314;8.910;2023-02-01T07:25:04;29.35;;;4.38;;
30307;SDS011;17114;52.314;8.910;2023-02-01T07:27:33;25.73;;;3.97;;
30307;SDS011;17114;52.314;8.910;2023-02-01T07:30:01;25.67;;;3.83;;
30307;SDS011;17114;52.314;8.910;2023-02-01T07:32:29;27.45;;;4.72;;
30307;SDS011;17114;52.314;8.910;2023-02-01T07:34:56;20.40;;;4.28;;
30307;SDS011;17114;52.314;8.910;2023-02-01T07:37:24;31.17;;;4.82;;
30307;SDS011;17114;52.314;8.910;2023-02-01T07:39:51;24.10;;;4.30;;
30307;SDS011;17114;52.314;8.910;2023-02-01T07:42:18;23.35;;;4.47;;
30307;SDS011;17114;52.314;8.910;2023-02-01T07:44:45;24.65;;;5.25;;
30307;SDS011;17114;52.314;8.910;2023-02-01T07:47:12;28.98;;;4.03;;
30307;SDS011;17114;52.314;8.910;2023-02-01T07:49:39;26.70;;;4.63;;
30307;SDS011;17114;52.314;8.910;2023-02-01T07:52:06;23.00;;;4.72;;
30307;SDS011;17114;52.314;8.910;2023-02-01T07:54:33;25.67;;;4.30;;
30307;SDS011;17114;52.314;8.910;2023-02-01T07:56:59;23.90;;;4.03;;
30307;SDS011;17114;52.314;8.910;2023-02-01T07:59:26;21.88;;;3.88;;
30307;SDS011;17114;52.314;8.910;2023-02-01T08:01:53;21.13;;;4.15;;
30307;SDS011;17114;52.314;8.910;2023-02-01T08:04:21;21.05;;;3.90;;
30307;SDS011;17114;52.314;8.910;2023-02-01T08:06:48;21.77;;;3.83;;
30307;SDS011;17114;52.314;8.910;2023-02-01T08:09:15;24.88;;;5.60;;
30307;SDS011;17114;52.314;8.910;2023-02-01T08:11:42;22.13;;;3.90;;
30307;SDS011;17114;52.314;8.910;2023-02-01T08:14:10;26.05;;;4.45;;
30307;SDS011;17114;52.314;8.910;2023-02-01T08:16:37;28.80;;;4.13;;
30307;SDS011;17114;52.314;8.910;2023-02-01T08:19:05;24.02;;;4.05;;
30307;SDS011;17114;52.314;8.910;2023-02-01T08:21:32;24.25;;;3.90;;
30307;SDS011;17114;52.314;8.910;2023-02-01T08:24:06;29.80;;;5.15;;
30307;SDS011;17114;52.314;8.910;2023-02-01T08:26:35;19.48;;;4.53;;
30307;SDS011;17114;52.314;8.910;2023-02-01T08:29:03;24.45;;;4.40;;
30307;SDS011;17114;52.314;8.910;2023-02-01T08:31:31;22.02;;;4.65;;
30307;SDS011;17114;52.314;8.910;2023-02-01T08:33:59;25.52;;;3.88;;
30307;SDS011;17114;52.314;8.910;2023-02-01T08:36:28;21.38;;;4.53;;
30307;SDS011;17114;52.314;8.910;2023-02-01T08:38:56;22.13;;;3.90;;
30307;SDS011;17114;52.314;8.910;2023-02-01T08:41:25;17.83;;;4.20;;
30307;SDS011;17114;52.314;8.910;2023-02-01T08:43:53;24.58;;;4.88;;
30307;SDS011;17114;52.314;8.910;2023-02-01T08:46:21;22.80;;;4.03;;
30307;SDS011;17114;52.314;8.910;2023-02-01T08:48:49;30.02;;;4.35;;
30307;SDS011;17114;52.314;8.910;2023-02-01T08:51:17;18.85;;;3.65;;
30307;SDS011;17114;52.314;8.910;2023-02-01T08:53:46;20.40;;;4.20;;
30307;SDS011;17114;52.314;8.910;2023-02-01T08:56:14;18.75;;;3.88;;
30307;SDS011;17114;52.314;8.910;2023-02-01T08:58:44;20.85;;;4.35;;
30307;SDS011;17114;52.314;8.910;2023-02-01T09:01:11;23.17;;;3.80;;
30307;SDS011;17114;52.314;8.910;2023-02-01T09:03:43;17.13;;;3.65;;
30307;SDS011;17114;52.314;8.910;2023-02-01T09:06:11;20.65;;;4.45;;
30307;SDS011;17114;52.314;8.910;2023-02-01T09:08:40;19.83;;;3.72;;
30307;SDS011;17114;52.314;8.910;2023-02-01T09:11:10;15.88;;;3.92;;
30307;SDS011;17114;52.314;8.910;2023-02-01T09:13:39;22.77;;;3.63;;
30307;SDS011;17114;52.314;8.910;2023-02-01T09:16:07;20.73;;;3.90;;
30307;SDS011;17114;52.314;8.910;2023-02-01T09:18:34;21.00;;;3.65;;
30307;SDS011;17114;52.314;8.910;2023-02-01T09:21:15;22.25;;;4.35;;
30307;SDS011;17114;52.314;8.910;2023-02-01T09:23:43;21.90;;;4.40;;
30307;SDS011;17114;52.314;8.910;2023-02-01T09:26:10;28.55;;;4.55;;
30307;SDS011;17114;52.314;8.910;2023-02-01T09:28:40;29.42;;;4.65;;
30307;SDS011;17114;52.314;8.910;2023-02-01T09:31:07;27.83;;;4.35;;
30307;SDS011;17114;52.314;8.910;2023-02-01T09:33:34;18.05;;;3.60;;
30307;SDS011;17114;52.314;8.910;2023-02-01T09:36:03;22.77;;;4.05;;
30307;SDS011;17114;52.314;8.910;2023-02-01T09:38:30;20.65;;;4.32;;
30307;SDS011;17114;52.314;8.910;2023-02-01T09:41:06;27.42;;;4.47;;
30307;SDS011;17114;52.314;8.910;2023-02-01T09:43:53;16.00;;;3.88;;
30307;SDS011;17114;52.314;8.910;2023-02-01T09:46:41;22.15;;;4.20;;
30307;SDS011;17114;52.314;8.910;2023-02-01T09:49:27;19.30;;;3.78;;
30307;SDS011;17114;52.314;8.910;2023-02-01T09:52:00;21.65;;;3.85;;
30307;SDS011;17114;52.314;8.910;2023-02-01T09:54:46;23.13;;;3.85;;
30307;SDS011;17114;52.314;8.910;2023-02-01T09:57:18;23.38;;;4.07;;
30307;SDS011;17114;52.314;8.910;2023-02-01T09:59:54;21.48;;;4.35;;
30307;SDS011;17114;52.314;8.910;2023-02-01T10:02:27;19.20;;;3.60;;
30307;SDS011;17114;52.314;8.910;2023-02-01T10:04:59;17.08;;;3.92;;
30307;SDS011;17114;52.314;8.910;2023-02-01T10:07:37;16.95;;;3.45;;
30307;SDS011;17114;52.314;8.910;2023-02-01T10:18:40;15.68;;;3.72;;
30307;SDS011;17114;52.314;8.910;2023-02-01T10:26:49;20.65;;;3.97;;
30307;SDS011;17114;52.314;8.910;2023-02-01T10:29:36;15.32;;;3.30;;
30307;SDS011;17114;52.314;8.910;2023-02-01T10:32:16;15.23;;;3.17;;
30307;SDS011;17114;52.314;8.910;2023-02-01T10:34:57;22.63;;;3.53;;
30307;SDS011;17114;52.314;8.910;2023-02-01T10:37:30;17.17;;;3.70;;
30307;SDS011;17114;52.314;8.910;2023-02-01T10:40:00;22.52;;;3.60;;
30307;SDS011;17114;52.314;8.910;2023-02-01T10:42:40;18.67;;;3.50;;
30307;SDS011;17114;52.314;8.910;2023-02-01T10:45:11;17.45;;;3.00;;
30307;SDS011;17114;52.314;8.910;2023-02-01T10:47:48;9.98;;;3.22;;
30307;SDS011;17114;52.314;8.910;2023-02-01T10:53:18;15.93;;;3.13;;
30307;SDS011;17114;52.314;8.910;2023-02-01T10:56:11;14.85;;;2.95;;
30307;SDS011;17114;52.314;8.910;2023-02-01T10:58:43;20.50;;;3.22;;
30307;SDS011;17114;52.314;8.910;2023-02-01T11:01:22;21.25;;;4.00;;
30307;SDS011;17114;52.314;8.910;2023-02-01T11:03:58;14.98;;;3.63;;
30307;SDS011;17114;52.314;8.910;2023-02-01T11:11:32;20.30;;;3.30;;
30307;SDS011;17114;52.314;8.910;2023-02-01T11:16:57;24.27;;;4.03;;
30307;SDS011;17114;52.314;8.910;2023-02-01T11:19:26;13.10;;;2.65;;
30307;SDS011;17114;52.314;8.910;2023-02-01T11:21:55;17.02;;;3.83;;
30307;SDS011;17114;52.314;8.910;2023-02-01T11:24:26;18.45;;;4.15;;
30307;SDS011;17114;52.314;8.910;2023-02-01T11:27:02;22.08;;;4.88;;
30307;SDS011;17114;52.314;8.910;2023-02-01T11:29:36;22.52;;;4.50;;
30307;SDS011;17114;52.314;8.910;2023-02-01T11:32:07;21.17;;;4.40;;
30307;SDS011;17114;52.314;8.910;2023-02-01T11:34:37;13.05;;;3.47;;
30307;SDS011;17114;52.314;8.910;2023-02-01T11:37:19;20.40;;;4.43;;
30307;SDS011;17114;52.314;8.910;2023-02-01T11:42:26;17.05;;;4.50;;
30307;SDS011;17114;52.314;8.910;2023-02-01T11:47:57;21.70;;;3.63;;
30307;SDS011;17114;52.314;8.910;2023-02-01T11:56:02;25.27;;;4.47;;
30307;SDS011;17114;52.314;8.910;2023-02-01T12:01:21;25.45;;;4.35;;
30307;SDS011;17114;52.314;8.910;2023-02-01T12:09:34;23.02;;;3.75;;
30307;SDS011;17114;52.314;8.910;2023-02-01T12:17:50;19.02;;;4.10;;
30307;SDS011;17114;52.314;8.910;2023-02-01T12:25:33;17.92;;;3.80;;
30307;SDS011;17114;52.314;8.910;2023-02-01T12:42:33;21.75;;;3.78;;
30307;SDS011;17114;52.314;8.910;2023-02-01T12:45:11;15.13;;;2.72;;
30307;SDS011;17114;52.314;8.910;2023-02-01T12:47:47;12.77;;;3.00;;
30307;SDS011;17114;52.314;8.910;2023-02-01T12:50:31;9.32;;;2.45;;
30307;SDS011;17114;52.314;8.910;2023-02-01T12:53:09;13.77;;;2.63;;
30307;SDS011;17114;52.314;8.910;2023-02-01T12:55:47;16.95;;;3.10;;
30307;SDS011;17114;52.314;8.910;2023-02-01T13:01:18;11.38;;;2.70;;
30307;SDS011;17114;52.314;8.910;2023-02-01T13:06:37;11.05;;;2.50;;
30307;SDS011;17114;52.314;8.910;2023-02-01T13:09:15;11.43;;;3.28;;
30307;SDS011;17114;52.314;8.910;2023-02-01T13:11:59;14.05;;;3.38;;
30307;SDS011;17114;52.314;8.910;2023-02-01T13:17:05;7.78;;;2.90;;
30307;SDS011;17114;52.314;8.910;2023-02-01T13:19:55;12.43;;;3.17;;
30307;SDS011;17114;52.314;8.910;2023-02-01T13:22:36;10.00;;;3.13;;
30307;SDS011;17114;52.314;8.910;2023-02-01T13:25:15;15.00;;;3.30;;
30307;SDS011;17114;52.314;8.910;2023-02-01T13:28:06;11.32;;;3.08;;
30307;SDS011;17114;52.314;8.910;2023-02-01T13:33:44;18.70;;;4.03;;
30307;SDS011;17114;52.314;8.910;2023-02-01T13:36:32;9.07;;;3.40;;
30307;SDS011;17114;52.314;8.910;2023-02-01T13:41:59;9.57;;;2.67;;
30307;SDS011;17114;52.314;8.910;2023-02-01T13:44:34;13.98;;;3.28;;
30307;SDS011;17114;52.314;8.910;2023-02-01T13:47:21;11.52;;;2.95;;
30307;SDS011;17114;52.314;8.910;2023-02-01T13:49:57;12.30;;;2.67;;
30307;SDS011;17114;52.314;8.910;2023-02-01T13:52:28;7.15;;;2.42;;
30307;SDS011;17114;52.314;8.910;2023-02-01T13:55:23;3.22;;;0.98;;
30307;SDS011;17114;52.314;8.910;2023-02-01T14:03:49;0.60;;;0.60;;
30307;SDS011;17114;52.314;8.910;2023-02-01T14:19:38;1.20;;;1.02;;
30307;SDS011;17114;52.314;8.910;2023-02-01T14:24:41;2.72;;;1.95;;
30307;SDS011;17114;52.314;8.910;2023-02-01T14:27:17;4.32;;;1.10;;
30307;SDS011;17114;52.314;8.910;2023-02-01T14:29:51;2.53;;;1.00;;
30307;SDS011;17114;52.314;8.910;2023-02-01T14:32:24;1.85;;;0.98;;
30307;SDS011;17114;52.314;8.910;2023-02-01T14:34:58;2.72;;;1.00;;
30307;SDS011;17114;52.314;8.910;2023-02-01T14:40:03;2.30;;;1.10;;
30307;SDS011;17114;52.314;8.910;2023-02-01T15:00:54;7.13;;;2.40;;
30307;SDS011;17114;52.314;8.910;2023-02-01T15:06:13;9.30;;;2.38;;
30307;SDS011;17114;52.314;8.910;2023-02-01T15:09:00;10.73;;;2.90;;
30307;SDS011;17114;52.314;8.910;2023-02-01T15:11:28;13.52;;;3.15;;
30307;SDS011;17114;52.314;8.910;2023-02-01T15:13:55;13.90;;;2.97;;
30307;SDS011;17114;52.314;8.910;2023-02-01T15:16:24;16.67;;;2.78;;
30307;SDS011;17114;52.314;8.910;2023-02-01T15:19:08;21.27;;;3.65;;
30307;SDS011;17114;52.314;8.910;2023-02-01T15:21:44;18.73;;;4.03;;
30307;SDS011;17114;52.314;8.910;2023-02-01T15:24:21;20.75;;;3.15;;
30307;SDS011;17114;52.314;8.910;2023-02-01T15:26:56;14.65;;;2.75;;
30307;SDS011;17114;52.314;8.910;2023-02-01T15:29:30;14.27;;;3.00;;
30307;SDS011;17114;52.314;8.910;2023-02-01T15:31:59;15.10;;;3.40;;
30307;SDS011;17114;52.314;8.910;2023-02-01T15:34:46;13.98;;;2.80;;
30307;SDS011;17114;52.314;8.910;2023-02-01T15:37:15;12.63;;;2.63;;
30307;SDS011;17114;52.314;8.910;2023-02-01T15:42:48;12.15;;;2.40;;
30307;SDS011;17114;52.314;8.910;2023-02-01T15:45:28;6.05;;;1.73;;
30307;SDS011;17114;52.314;8.910;2023-02-01T15:47:58;6.87;;;1.80;;
30307;SDS011;17114;52.314;8.910;2023-02-01T15:50:26;11.60;;;2.28;;
30307;SDS011;17114;52.314;8.910;2023-02-01T15:52:57;10.57;;;1.70;;
30307;SDS011;17114;52.314;8.910;2023-02-01T15:58:08;11.20;;;1.90;;
30307;SDS011;17114;52.314;8.910;2023-02-01T16:00:50;7.03;;;1.92;;
30307;SDS011;17114;52.314;8.910;2023-02-01T16:03:37;9.18;;;2.45;;
30307;SDS011;17114;52.314;8.910;2023-02-01T16:06:27;9.63;;;2.80;;
30307;SDS011;17114;52.314;8.910;2023-02-01T16:08:55;16.88;;;2.83;;
30307;SDS011;17114;52.314;8.910;2023-02-01T16:11:41;11.43;;;2.60;;
30307;SDS011;17114;52.314;8.910;2023-02-01T16:14:14;10.18;;;2.42;;
30307;SDS011;17114;52.314;8.910;2023-02-01T16:16:41;12.25;;;3.15;;
30307;SDS011;17114;52.314;8.910;2023-02-01T16:19:09;18.08;;;3.53;;
30307;SDS011;17114;52.314;8.910;2023-02-01T16:21:36;18.15;;;4.10;;
30307;SDS011;17114;52.314;8.910;2023-02-01T16:24:03;16.20;;;3.33;;
30307;SDS011;17114;52.314;8.910;2023-02-01T16:26:32;16.73;;;3.22;;
30307;SDS011;17114;52.314;8.910;2023-02-01T16:29:00;17.13;;;3.47;;
30307;SDS011;17114;52.314;8.910;2023-02-01T16:31:33;27.52;;;4.70;;
30307;SDS011;17114;52.314;8.910;2023-02-01T16:34:03;23.25;;;4.13;;
30307;SDS011;17114;52.314;8.910;2023-02-01T16:36:32;25.98;;;4.60;;
30307;SDS011;17114;52.314;8.910;2023-02-01T16:38:59;29.00;;;4.40;;
30307;SDS011;17114;52.314;8.910;2023-02-01T16:41:29;22.67;;;5.00;;
30307;SDS011;17114;52.314;8.910;2023-02-01T16:43:56;31.33;;;5.50;;
30307;SDS011;17114;52.314;8.910;2023-02-01T16:46:24;29.92;;;5.25;;
30307;SDS011;17114;52.314;8.910;2023-02-01T16:48:53;23.13;;;5.50;;
30307;SDS011;17114;52.314;8.910;2023-02-01T16:51:23;28.80;;;4.65;;
30307;SDS011;17114;52.314;8.910;2023-02-01T16:53:53;23.27;;;4.43;;
30307;SDS011;17114;52.314;8.910;2023-02-01T16:56:24;29.92;;;4.78;;
30307;SDS011;17114;52.314;8.910;2023-02-01T16:58:57;32.42;;;4.80;;
30307;SDS011;17114;52.314;8.910;2023-02-01T17:01:24;23.05;;;4.63;;
30307;SDS011;17114;52.314;8.910;2023-02-01T17:03:52;16.92;;;4.18;;
30307;SDS011;17114;52.314;8.910;2023-02-01T17:06:20;23.70;;;4.85;;
30307;SDS011;17114;52.314;8.910;2023-02-01T17:08:53;23.25;;;4.28;;
30307;SDS011;17114;52.314;8.910;2023-02-01T17:11:24;23.95;;;4.18;;
30307;SDS011;17114;52.314;8.910;2023-02-01T17:13:52;22.27;;;4.05;;
30307;SDS011;17114;52.314;8.910;2023-02-01T17:16:21;23.23;;;4.18;;
30307;SDS011;17114;52.314;8.910;2023-02-01T17:19:06;21.10;;;4.10;;
30307;SDS011;17114;52.314;8.910;2023-02-01T17:21:40;22.77;;;4.60;;
30307;SDS011;17114;52.314;8.910;2023-02-01T17:24:13;24.38;;;4.53;;
30307;SDS011;17114;52.314;8.910;2023-02-01T17:26:42;18.40;;;4.55;;
30307;SDS011;17114;52.314;8.910;2023-02-01T17:29:10;28.20;;;4.32;;
30307;SDS011;17114;52.314;8.910;2023-02-01T17:31:41;25.50;;;3.85;;
30307;SDS011;17114;52.314;8.910;2023-02-01T17:34:15;19.48;;;3.40;;
30307;SDS011;17114;52.314;8.910;2023-02-01T17:36:43;27.73;;;4.20;;
30307;SDS011;17114;52.314;8.910;2023-02-01T17:39:11;25.75;;;4.72;;
30307;SDS011;17114;52.314;8.910;2023-02-01T17:41:58;27.90;;;4.10;;
30307;SDS011;17114;52.314;8.910;2023-02-01T17:44:26;18.77;;;4.43;;
30307;SDS011;17114;52.314;8.910;2023-02-01T17:46:53;30.88;;;5.88;;
30307;SDS011;17114;52.314;8.910;2023-02-01T17:49:22;23.42;;;3.95;;
30307;SDS011;17114;52.314;8.910;2023-02-01T17:51:50;30.50;;;4.72;;
30307;SDS011;17114;52.314;8.910;2023-02-01T17:54:17;26.55;;;5.03;;